Latest Weather Observations for Orange Airport

IDN60801

Issued at 6:04 am EDT Tuesday 23 December 2014 (issued every 30 minutes, with the page automatically refreshed every 10 minutes)

About weather observations | Map of weather stations | Latest weather observations for NSW | Other Formats
Station Details ID: 063303 Name: ORANGE AIRPORT AWS Lat: -33.38 Lon: 149.13 Height: 944.65 m
Data from the previous 72 hours. | See also: Recent months at Orange Airport
Date/Time
EDT
Temp
°C
App
Temp
°C
Dew
Point
Rel
Hum
%
Delta-T
°C
Wind Press
QNH
hPa
Press
MSL
hPa
Rain
since 9 am
mm
Dir
 
Spd
km/h
Gust
km/h
Spd
kts
Gust
kts
23/06:00am 14.8 14.3 13.7 93 0.6 NNE 9 13 5 7 1016.4 1012.5 -
23/05:30am 15.5 16.5 14.4 93 0.7 NE 2 9 1 5 1016.0 1012.1 5.0
23/05:00am 15.3 13.0 14.2 93 0.7 NNE 19 32 10 17 1015.2 1011.3 5.0
23/04:44am 15.2 11.9 14.1 93 0.7 NNE 24 33 13 18 1015.2 1011.3 4.8
23/04:30am 15.3 14.2 14.2 93 0.7 N 13 15 7 8 1016.5 1012.6 4.8
23/04:00am 15.4 14.3 14.3 93 0.7 NNE 13 17 7 9 1016.3 1012.4 4.6
23/03:30am 15.8 13.7 14.7 93 0.7 NNE 19 28 10 15 1016.7 1012.9 4.6
23/03:00am 15.3 14.2 14.2 93 0.7 NE 13 19 7 10 1016.8 1013.0 4.6
23/02:30am 15.2 15.7 14.1 93 0.7 N 4 9 2 5 1017.5 1013.6 4.6
23/02:00am 15.3 15.5 14.2 93 0.7 NNE 6 7 3 4 1018.2 1014.3 4.4
23/01:30am 15.5 14.4 14.4 93 0.7 N 13 20 7 11 1018.5 1014.6 4.2
23/01:00am 15.6 14.6 14.5 93 0.7 NNE 13 17 7 9 1018.6 1014.8 3.4
23/12:30am 15.9 15.0 14.8 93 0.7 NNE 13 15 7 8 1018.8 1015.0 3.2
23/12:00am 16.0 15.1 14.9 93 0.7 NNW 13 15 7 8 1019.4 1015.5 2.8
 
Date/Time
EDT
Temp
°C
App
Temp
°C
Dew
Point
Rel
Hum
%
Delta-T
°C
Wind Press
QNH
hPa
Press
MSL
hPa
Rain
since 9 am
mm
Dir
 
Spd
km/h
Gust
km/h
Spd
kts
Gust
kts
22/11:30pm 16.4 14.4 14.9 91 0.9 N 19 28 10 15 1019.5 1015.6 2.2
22/11:00pm 17.2 15.0 14.5 84 1.6 N 19 28 10 15 1019.4 1015.5 1.6
22/10:30pm 18.2 16.5 13.7 75 2.7 N 15 20 8 11 1018.8 1015.0 1.2
22/10:00pm 17.6 15.6 13.9 79 2.2 N 17 26 9 14 1018.6 1014.8 1.2
22/09:30pm 19.1 16.5 13.7 71 3.2 NE 20 28 11 15 1017.8 1014.0 1.2
22/09:00pm 19.5 16.3 13.0 66 3.8 NE 22 32 12 17 1017.4 1013.5 1.2
22/08:30pm 19.9 16.5 12.4 62 4.4 NE 22 30 12 16 1017.4 1013.5 1.2
22/08:00pm 20.5 17.5 12.0 58 5.0 ENE 19 32 10 17 1017.3 1013.4 1.2
22/07:30pm 20.8 17.4 12.5 59 4.9 ENE 22 35 12 19 1016.7 1012.9 1.2
22/07:00pm 20.8 18.5 14.0 65 4.1 ENE 19 30 10 16 1017.0 1013.1 1.2
22/06:30pm 20.4 18.1 14.7 70 3.5 E 20 33 11 18 1016.7 1012.9 1.2
22/06:00pm 19.9 17.5 15.3 75 2.8 E 22 28 12 15 1016.7 1012.9 1.2
22/05:30pm 19.1 16.6 15.2 78 2.4 E 22 28 12 15 1016.6 1012.7 1.2
22/05:00pm 18.1 15.2 15.0 82 1.9 E 24 37 13 20 1016.6 1012.7 1.2
22/04:30pm 19.7 15.8 13.4 67 3.8 E 26 35 14 19 1016.7 1012.9 0.0
22/04:00pm 21.0 16.5 12.7 59 4.9 ESE 28 41 15 22 1016.6 1012.7 0.0
22/03:30pm 24.8 22.0 9.9 39 8.6 ESE 15 28 8 15 1016.6 1012.7 0.0
22/03:00pm 25.4 23.5 10.4 39 8.7 E 11 19 6 10 1016.7 1012.9 0.0
22/02:30pm 26.2 23.7 11.2 39 8.9 ENE 15 20 8 11 1017.1 1013.2 0.0
22/02:00pm 29.0 25.6 11.1 33 10.7 ENE 20 26 11 14 1017.4 1013.5 0.0
22/01:30pm 28.4 25.7 13.5 40 9.2 N 20 30 11 16 1017.8 1014.0 0.0
22/01:00pm 27.5 23.8 11.5 37 9.5 N 22 35 12 19 1018.5 1014.6 0.0
22/12:30pm 27.8 24.3 13.3 40 8.9 N 24 37 13 20 1018.8 1015.0 0.0
22/12:00pm 27.0 23.3 12.6 41 8.7 N 24 33 13 18 1019.3 1015.4 0.0
22/11:30am 28.0 24.8 13.1 39 9.1 N 22 35 12 19 1019.6 1015.8 0.0
22/11:00am 27.3 23.5 13.6 43 8.4 N 26 35 14 19 1019.6 1015.8 0.0
22/10:30am 26.5 22.8 13.9 45 7.8 N 26 37 14 20 1019.7 1015.9 0.0
22/10:00am 25.0 21.4 14.2 51 6.6 NNW 26 33 14 18 1019.8 1016.0 0.0
22/09:30am 23.7 20.2 14.4 56 5.7 N 26 39 14 21 1019.7 1015.9 0.0
22/09:00am 22.7 19.3 14.8 61 4.9 N 26 35 14 19 1020.0 1016.2 0.0
22/08:30am 20.7 18.2 14.1 66 4.0 N 20 28 11 15 1019.9 1016.1 0.0
22/08:00am 21.3 18.7 14.9 67 3.9 N 22 32 12 17 1019.6 1015.8 0.0
22/07:30am 19.1 17.4 13.7 71 3.2 N 15 20 8 11 1019.4 1015.5 0.0
22/07:00am 17.1 16.5 14.6 85 1.5 N 11 13 6 7 1019.1 1015.3 0.0
22/06:30am 13.3 12.3 12.2 93 0.6 N 9 11 5 6 1018.9 1015.1 0.0
22/06:00am 12.1 10.7 11.0 93 0.6 NNW 9 9 5 5 1018.6 1014.8 0.0
22/05:30am 14.1 14.7 12.0 87 1.2 CALM 0 0 0 0 1017.8 1014.0 0.0
22/05:00am 14.1 13.7 12.3 89 1.0 NE 6 9 3 5 1017.7 1013.9 0.0
22/04:30am 14.8 13.9 12.7 87 1.2 NE 9 13 5 7 1017.7 1013.9 0.0
22/04:00am 14.7 13.6 12.0 84 1.5 NNE 9 11 5 6 1017.8 1014.0 0.0
22/03:30am 15.2 15.8 12.0 81 1.8 CALM 0 6 0 3 1017.7 1013.9 0.0
22/03:00am 16.1 15.2 12.5 79 2.1 ENE 9 13 5 7 1017.7 1013.9 0.0
22/02:30am 16.3 15.7 12.3 77 2.3 NE 7 9 4 5 1018.2 1014.3 0.0
22/02:00am 16.6 15.6 12.2 75 2.5 ENE 9 11 5 6 1018.3 1014.4 0.0
22/01:30am 16.5 15.6 11.2 71 3.0 ENE 7 11 4 6 1018.5 1014.6 0.0
22/01:00am 17.1 15.7 10.9 67 3.5 ENE 9 13 5 7 1018.8 1015.0 0.0
22/12:30am 17.8 16.1 11.1 65 3.8 ENE 11 15 6 8 1018.8 1015.0 0.0
22/12:00am 17.2 16.0 11.7 70 3.1 E 9 13 5 7 1018.9 1015.1 0.0
 
Date/Time
EDT
Temp
°C
App
Temp
°C
Dew
Point
Rel
Hum
%
Delta-T
°C
Wind Press
QNH
hPa
Press
MSL
hPa
Rain
since 9 am
mm
Dir
 
Spd
km/h
Gust
km/h
Spd
kts
Gust
kts
21/11:30pm 17.1 16.2 12.6 75 2.6 ESE 9 11 5 6 1018.8 1015.0 0.0
21/11:00pm 18.0 15.2 12.5 70 3.2 ESE 19 24 10 13 1018.5 1014.6 0.0
21/10:30pm 17.0 16.3 9.9 63 3.9 SW 4 7 2 4 1018.4 1014.5 0.0
21/10:00pm 17.3 16.1 9.5 60 4.3 SSE 6 7 3 4 1018.1 1014.2 0.0
21/09:30pm 18.2 17.9 8.7 54 5.2 CALM 0 0 0 0 1017.9 1014.1 0.0
21/09:00pm 19.2 18.9 8.5 50 5.8 CALM 0 6 0 3 1017.8 1014.0 0.0
21/08:30pm 21.3 20.9 8.2 43 7.2 CALM 0 0 0 0 1017.7 1013.9 0.0
21/08:00pm 22.9 21.3 8.2 39 8.1 W 6 7 3 4 1017.6 1013.8 0.0
21/07:30pm 24.9 23.1 8.0 34 9.4 NW 7 9 4 5 1017.2 1013.3 0.0
21/07:00pm 26.0 24.8 8.0 32 10.1 WSW 4 7 2 4 1017.0 1013.1 0.0
21/06:30pm 25.8 23.6 6.4 29 10.6 NW 7 11 4 6 1016.7 1012.9 0.0
21/06:00pm 28.3 25.9 7.0 26 11.8 NW 9 17 5 9 1016.7 1012.9 0.0
21/05:30pm 27.1 23.3 6.0 26 11.5 NNE 15 22 8 12 1016.8 1013.0 0.0
21/05:00pm 28.0 25.2 5.0 23 12.4 NW 9 15 5 8 1017.2 1013.3 0.0
21/04:30pm 28.7 25.5 6.7 25 12.2 NW 13 20 7 11 1017.6 1013.8 0.0
21/04:00pm 27.7 24.0 6.5 26 11.7 NNE 15 24 8 13 1017.8 1014.0 0.0
21/03:30pm 28.4 24.5 7.1 26 11.9 NW 17 24 9 13 1018.1 1014.2 0.0
21/03:00pm 28.2 25.4 6.9 26 11.8 NNW 11 24 6 13 1018.2 1014.3 0.0
21/02:30pm 27.1 24.0 5.4 25 11.7 NNW 11 17 6 9 1018.6 1014.8 0.0
21/02:00pm 27.3 23.2 4.4 23 12.1 NW 15 24 8 13 1018.9 1015.1 0.0
21/01:30pm 26.2 23.5 5.7 27 11.0 SSW 9 15 5 8 1019.4 1015.5 0.0
21/01:00pm 25.5 21.3 5.7 28 10.6 NW 17 30 9 16 1019.5 1015.6 0.0
21/12:30pm 24.9 22.6 7.5 33 9.6 NE 9 15 5 8 1019.9 1016.1 0.0
21/12:00pm 25.0 21.8 8.5 35 9.2 NNE 15 26 8 14 1020.1 1016.3 0.0
21/11:30am 24.2 20.5 7.8 35 9.1 N 17 28 9 15 1020.5 1016.7 0.0
21/11:00am 23.2 19.1 7.7 37 8.5 N 19 30 10 16 1020.1 1016.3 0.0
21/10:30am 22.6 18.7 7.2 37 8.3 NNE 17 24 9 13 1020.0 1016.2 0.0
21/10:00am 21.6 17.6 8.1 42 7.4 NNE 19 28 10 15 1019.9 1016.1 0.0
21/09:30am 20.1 16.1 8.1 46 6.5 NE 19 24 10 13 1020.2 1016.4 0.0
21/09:00am 19.2 15.7 8.8 51 5.7 NE 17 22 9 12 1020.2 1016.4 0.0
21/08:30am 17.8 14.8 9.4 58 4.6 NE 15 22 8 12 1020.1 1016.3 0.0
21/08:00am 15.9 12.1 9.1 64 3.7 NE 19 24 10 13 1020.0 1016.2 0.0
21/07:30am 15.0 12.8 9.4 69 3.0 NE 11 17 6 9 1019.6 1015.8 0.0
21/07:00am 13.7 12.1 10.1 79 2.0 NE 9 11 5 6 1019.4 1015.5 0.0
21/06:30am 11.4 9.7 9.7 89 0.9 ENE 9 13 5 7 1019.1 1015.3 0.0
21/06:00am 10.3 8.7 8.9 91 0.7 ENE 7 11 4 6 1018.9 1015.1 0.0
21/05:30am 10.3 8.7 8.6 89 0.9 NE 7 11 4 6 1018.7 1014.9 0.0
21/05:00am 10.8 8.9 9.2 90 0.8 ENE 9 13 5 7 1018.6 1014.8 0.0
21/04:30am 10.2 8.6 8.8 91 0.7 ENE 7 11 4 6 1018.4 1014.5 0.0
21/04:00am 10.2 8.6 8.1 87 1.1 NE 6 7 3 4 1018.3 1014.4 0.0
21/03:30am 11.8 10.5 10.0 89 1.0 NE 7 11 4 6 1018.3 1014.4 0.0
21/03:00am 12.1 10.8 10.0 87 1.1 NE 7 13 4 7 1018.3 1014.4 0.0
21/02:30am 12.5 10.6 10.4 87 1.1 ENE 11 15 6 8 1018.4 1014.5 0.0
21/02:00am 12.8 11.6 10.2 84 1.4 ENE 7 11 4 6 1018.6 1014.8 0.0
21/01:30am 13.4 11.2 10.8 84 1.4 NE 13 17 7 9 1018.9 1015.1 0.0
21/01:00am 13.7 11.2 10.9 83 1.5 ENE 15 19 8 10 1019.0 1015.2 0.0
21/12:30am 12.7 11.0 9.9 83 1.5 ENE 9 11 5 6 1019.3 1015.4 0.0
21/12:00am 12.4 10.6 9.4 82 1.6 E 9 11 5 6 1019.4 1015.5 0.0
 
Date/Time
EDT
Temp
°C
App
Temp
°C
Dew
Point
Rel
Hum
%
Delta-T
°C
Wind Press
QNH
hPa
Press
MSL
hPa
Rain
since 9 am
mm
Dir
 
Spd
km/h
Gust
km/h
Spd
kts
Gust
kts
20/11:30pm 12.8 11.4 9.4 80 1.8 E 7 11 4 6 1019.6 1015.8 0.0
20/11:00pm 13.7 11.2 9.6 76 2.2 E 13 15 7 8 1019.6 1015.8 0.0
20/10:30pm 14.5 12.0 9.7 73 2.6 ESE 13 17 7 9 1019.4 1015.5 0.0
20/10:00pm 14.8 11.7 10.4 75 2.4 ESE 17 19 9 10 1019.0 1015.2 0.0
20/09:30pm 13.6 10.3 4.5 54 4.4 S 11 22 6 12 1018.6 1014.8 0.0
20/09:00pm 16.6 14.1 4.6 45 6.0 SSW 7 11 4 6 1018.2 1014.3 0.0
20/08:30pm 18.3 15.2 3.8 38 7.2 SSW 9 11 5 6 1018.1 1014.2 0.0
20/08:00pm 20.1 17.0 3.8 34 8.2 SSW 9 11 5 6 1017.7 1013.9 0.0
20/07:30pm 22.2 18.8 3.8 30 9.4 SSW 11 15 6 8 1017.4 1013.5 0.0
20/07:00pm 23.4 20.3 3.4 27 10.2 S 9 13 5 7 1017.2 1013.3 0.0
20/06:30pm 23.7 19.6 2.5 25 10.6 SW 13 19 7 10 1016.8 1013.0 0.0
20/06:00pm 23.8 20.2 3.2 26 10.5 SSE 11 19 6 10 1016.6 1012.7 0.0
20/05:30pm 24.1 20.0 4.5 28 10.2 SSW 15 20 8 11 1016.3 1012.4 0.0
20/05:00pm 24.4 20.2 3.7 26 10.6 SW 15 20 8 11 1016.5 1012.6 0.0
20/04:30pm 23.9 20.1 3.8 27 10.3 S 13 22 7 12 1016.5 1012.6 0.0
20/04:00pm 25.4 21.4 6.6 30 10.2 SSW 17 26 9 14 1016.7 1012.9 0.0
20/03:30pm 23.7 20.0 4.6 29 9.9 SSW 13 26 7 14 1017.2 1013.3 0.0
20/03:00pm 24.8 20.7 6.1 30 10.1 WSW 17 24 9 13 1017.4 1013.5 0.0
20/02:30pm 23.9 19.6 5.3 30 9.8 SW 17 28 9 15 1017.6 1013.8 0.0
20/02:00pm 23.3 19.9 5.7 32 9.3 SSW 13 20 7 11 1017.8 1014.0 0.0
20/01:30pm 23.0 19.1 5.4 32 9.3 W 15 20 8 11 1018.2 1014.3 0.0
20/01:00pm 22.7 20.4 7.3 37 8.4 NW 9 19 5 10 1018.4 1014.5 0.0
20/12:30pm 20.7 18.3 7.0 41 7.3 SSW 9 15 5 8 1018.9 1015.1 0.0
20/12:00pm 20.2 17.2 5.8 39 7.5 SW 11 17 6 9 1019.3 1015.4 0.0
20/11:30am 20.7 18.0 7.3 42 7.2 NW 11 20 6 11 1019.5 1015.6 0.0
20/11:00am 18.8 16.6 6.0 43 6.6 NNW 7 13 4 7 1019.6 1015.8 0.0
20/10:30am 18.4 15.7 7.2 48 5.9 N 11 19 6 10 1019.6 1015.8 0.0
20/10:00am 17.3 14.5 7.1 51 5.3 NNW 11 17 6 9 1019.5 1015.6 0.0
20/09:30am 16.1 13.2 8.1 59 4.2 NNE 13 19 7 10 1019.4 1015.5 0.0
20/09:00am 14.8 11.1 7.8 63 3.7 NE 17 22 9 12 1019.3 1015.4 0.0
20/08:30am 14.0 10.9 9.0 72 2.7 ENE 15 20 8 11 1019.1 1015.3 0.0
20/08:00am 12.4 9.3 8.9 79 1.8 ENE 15 20 8 11 1018.9 1015.1 0.0
20/07:30am 10.9 7.8 9.0 88 1.0 NE 15 20 8 11 1018.8 1015.0 0.0
20/07:00am 9.3 6.4 8.2 93 0.6 NE 13 20 7 11 1018.4 1014.5 0.0
20/06:46am 8.4 6.4 7.3 93 0.5 NE 7 11 4 6 1018.3 1014.4 0.0
20/06:30am 6.8 4.7 5.7 93 0.5 ENE 6 7 3 4 1018.3 1014.4 0.0

Other Formats:

Comma delimited format used in spreadsheet applications
http://www.bom.gov.au/fwo/IDN60801/IDN60801.95726.axf

JavaScript Object Notation format (JSON) in row-major order
http://www.bom.gov.au/fwo/IDN60801/IDN60801.95726.json